sensor_id;sensor_type;location;lat;lon;timestamp;P1;durP1;ratioP1;P2;durP2;ratioP2
17059;SDS011;8646;49.716;9.266;2023-03-20T00:01:52;11.47;;;6.50;;
17059;SDS011;8646;49.716;9.266;2023-03-20T00:04:55;12.70;;;7.10;;
17059;SDS011;8646;49.716;9.266;2023-03-20T00:07:58;10.97;;;5.93;;
17059;SDS011;8646;49.716;9.266;2023-03-20T00:11:01;10.33;;;5.23;;
17059;SDS011;8646;49.716;9.266;2023-03-20T00:14:06;6.97;;;4.33;;
17059;SDS011;8646;49.716;9.266;2023-03-20T00:17:11;9.23;;;4.40;;
17059;SDS011;8646;49.716;9.266;2023-03-20T00:20:20;9.30;;;4.60;;
17059;SDS011;8646;49.716;9.266;2023-03-20T00:23:24;8.03;;;4.30;;
17059;SDS011;8646;49.716;9.266;2023-03-20T00:26:30;6.43;;;4.00;;
17059;SDS011;8646;49.716;9.266;2023-03-20T00:29:36;6.27;;;4.07;;
17059;SDS011;8646;49.716;9.266;2023-03-20T00:32:39;8.57;;;4.10;;
17059;SDS011;8646;49.716;9.266;2023-03-20T00:35:42;7.10;;;4.37;;
17059;SDS011;8646;49.716;9.266;2023-03-20T00:38:45;9.53;;;4.50;;
17059;SDS011;8646;49.716;9.266;2023-03-20T00:41:48;11.20;;;4.40;;
17059;SDS011;8646;49.716;9.266;2023-03-20T00:44:55;7.03;;;4.37;;
17059;SDS011;8646;49.716;9.266;2023-03-20T00:47:59;8.07;;;4.60;;
17059;SDS011;8646;49.716;9.266;2023-03-20T00:51:03;7.47;;;4.40;;
17059;SDS011;8646;49.716;9.266;2023-03-20T00:54:12;8.10;;;4.37;;
17059;SDS011;8646;49.716;9.266;2023-03-20T00:57:16;7.57;;;4.47;;
17059;SDS011;8646;49.716;9.266;2023-03-20T01:03:48;7.07;;;4.47;;
17059;SDS011;8646;49.716;9.266;2023-03-20T01:07:04;13.10;;;5.33;;
17059;SDS011;8646;49.716;9.266;2023-03-20T01:10:14;8.00;;;5.17;;
17059;SDS011;8646;49.716;9.266;2023-03-20T01:13:18;10.77;;;5.43;;
17059;SDS011;8646;49.716;9.266;2023-03-20T01:16:30;9.93;;;5.03;;
17059;SDS011;8646;49.716;9.266;2023-03-20T01:19:33;9.90;;;5.53;;
17059;SDS011;8646;49.716;9.266;2023-03-20T01:22:36;9.93;;;5.83;;
17059;SDS011;8646;49.716;9.266;2023-03-20T01:25:39;12.03;;;6.47;;
17059;SDS011;8646;49.716;9.266;2023-03-20T01:28:43;10.87;;;5.70;;
17059;SDS011;8646;49.716;9.266;2023-03-20T01:31:50;9.57;;;5.40;;
17059;SDS011;8646;49.716;9.266;2023-03-20T01:34:53;13.73;;;5.53;;
17059;SDS011;8646;49.716;9.266;2023-03-20T01:37:57;8.63;;;5.30;;
17059;SDS011;8646;49.716;9.266;2023-03-20T01:41:02;11.20;;;6.03;;
17059;SDS011;8646;49.716;9.266;2023-03-20T01:44:14;10.70;;;5.53;;
17059;SDS011;8646;49.716;9.266;2023-03-20T01:47:25;12.50;;;5.37;;
17059;SDS011;8646;49.716;9.266;2023-03-20T01:50:29;11.67;;;5.80;;
17059;SDS011;8646;49.716;9.266;2023-03-20T01:53:33;11.27;;;5.40;;
17059;SDS011;8646;49.716;9.266;2023-03-20T01:56:36;11.50;;;6.17;;
17059;SDS011;8646;49.716;9.266;2023-03-20T01:59:43;9.77;;;5.67;;
17059;SDS011;8646;49.716;9.266;2023-03-20T02:02:52;9.30;;;5.37;;
17059;SDS011;8646;49.716;9.266;2023-03-20T02:05:55;10.17;;;5.23;;
17059;SDS011;8646;49.716;9.266;2023-03-20T02:08:59;9.07;;;5.30;;
17059;SDS011;8646;49.716;9.266;2023-03-20T02:12:02;10.40;;;5.40;;
17059;SDS011;8646;49.716;9.266;2023-03-20T02:15:06;13.20;;;5.70;;
17059;SDS011;8646;49.716;9.266;2023-03-20T02:18:12;9.23;;;5.23;;
17059;SDS011;8646;49.716;9.266;2023-03-20T02:21:24;15.90;;;5.47;;
17059;SDS011;8646;49.716;9.266;2023-03-20T02:28:45;12.97;;;5.50;;
17059;SDS011;8646;49.716;9.266;2023-03-20T02:35:56;14.40;;;5.70;;
17059;SDS011;8646;49.716;9.266;2023-03-20T02:42:58;14.37;;;6.03;;
17059;SDS011;8646;49.716;9.266;2023-03-20T02:46:11;12.23;;;5.20;;
17059;SDS011;8646;49.716;9.266;2023-03-20T02:49:26;14.70;;;5.43;;
17059;SDS011;8646;49.716;9.266;2023-03-20T02:52:52;16.00;;;5.90;;
17059;SDS011;8646;49.716;9.266;2023-03-20T02:56:05;11.43;;;5.30;;
17059;SDS011;8646;49.716;9.266;2023-03-20T02:59:16;17.40;;;5.53;;
17059;SDS011;8646;49.716;9.266;2023-03-20T03:02:28;9.97;;;5.47;;
17059;SDS011;8646;49.716;9.266;2023-03-20T03:05:37;13.83;;;5.17;;
17059;SDS011;8646;49.716;9.266;2023-03-20T03:08:53;12.23;;;4.60;;
17059;SDS011;8646;49.716;9.266;2023-03-20T03:12:03;8.60;;;3.93;;
17059;SDS011;8646;49.716;9.266;2023-03-20T03:15:16;7.47;;;3.80;;
17059;SDS011;8646;49.716;9.266;2023-03-20T03:18:27;12.20;;;4.70;;
17059;SDS011;8646;49.716;9.266;2023-03-20T03:21:32;14.80;;;5.40;;
17059;SDS011;8646;49.716;9.266;2023-03-20T03:24:42;12.97;;;4.97;;
17059;SDS011;8646;49.716;9.266;2023-03-20T03:27:48;12.53;;;5.40;;
17059;SDS011;8646;49.716;9.266;2023-03-20T03:30:55;12.40;;;5.77;;
17059;SDS011;8646;49.716;9.266;2023-03-20T03:34:01;12.73;;;5.40;;
17059;SDS011;8646;49.716;9.266;2023-03-20T03:37:05;12.63;;;5.77;;
17059;SDS011;8646;49.716;9.266;2023-03-20T03:40:15;8.93;;;5.20;;
17059;SDS011;8646;49.716;9.266;2023-03-20T03:43:25;10.63;;;5.07;;
17059;SDS011;8646;49.716;9.266;2023-03-20T03:46:34;10.63;;;5.63;;
17059;SDS011;8646;49.716;9.266;2023-03-20T03:49:45;10.57;;;5.20;;
17059;SDS011;8646;49.716;9.266;2023-03-20T03:52:52;9.93;;;5.10;;
17059;SDS011;8646;49.716;9.266;2023-03-20T03:56:00;11.03;;;4.93;;
17059;SDS011;8646;49.716;9.266;2023-03-20T03:59:09;13.77;;;5.60;;
17059;SDS011;8646;49.716;9.266;2023-03-20T04:02:16;13.00;;;5.77;;
17059;SDS011;8646;49.716;9.266;2023-03-20T04:05:22;14.90;;;5.80;;
17059;SDS011;8646;49.716;9.266;2023-03-20T04:08:49;11.03;;;5.33;;
17059;SDS011;8646;49.716;9.266;2023-03-20T04:11:55;12.23;;;5.33;;
17059;SDS011;8646;49.716;9.266;2023-03-20T04:15:02;12.03;;;5.23;;
17059;SDS011;8646;49.716;9.266;2023-03-20T04:18:05;14.63;;;5.83;;
17059;SDS011;8646;49.716;9.266;2023-03-20T04:21:10;14.30;;;5.67;;
17059;SDS011;8646;49.716;9.266;2023-03-20T04:24:13;12.40;;;5.37;;
17059;SDS011;8646;49.716;9.266;2023-03-20T04:27:18;11.70;;;5.40;;
17059;SDS011;8646;49.716;9.266;2023-03-20T04:30:36;15.13;;;5.87;;
17059;SDS011;8646;49.716;9.266;2023-03-20T04:33:39;10.93;;;6.00;;
17059;SDS011;8646;49.716;9.266;2023-03-20T04:36:42;19.57;;;5.87;;
17059;SDS011;8646;49.716;9.266;2023-03-20T04:39:45;15.43;;;6.20;;
17059;SDS011;8646;49.716;9.266;2023-03-20T04:42:54;14.57;;;6.13;;
17059;SDS011;8646;49.716;9.266;2023-03-20T04:46:06;14.30;;;5.50;;
17059;SDS011;8646;49.716;9.266;2023-03-20T04:49:09;13.33;;;5.03;;
17059;SDS011;8646;49.716;9.266;2023-03-20T04:52:12;11.70;;;4.77;;
17059;SDS011;8646;49.716;9.266;2023-03-20T04:55:17;10.63;;;4.80;;
17059;SDS011;8646;49.716;9.266;2023-03-20T04:58:19;14.23;;;7.00;;
17059;SDS011;8646;49.716;9.266;2023-03-20T05:01:35;12.37;;;6.90;;
17059;SDS011;8646;49.716;9.266;2023-03-20T05:04:39;18.97;;;8.23;;
17059;SDS011;8646;49.716;9.266;2023-03-20T05:07:43;18.50;;;8.67;;
17059;SDS011;8646;49.716;9.266;2023-03-20T05:10:46;17.63;;;8.83;;
17059;SDS011;8646;49.716;9.266;2023-03-20T05:13:52;17.70;;;8.00;;
17059;SDS011;8646;49.716;9.266;2023-03-20T05:16:58;21.37;;;7.87;;
17059;SDS011;8646;49.716;9.266;2023-03-20T05:20:01;15.07;;;7.70;;
17059;SDS011;8646;49.716;9.266;2023-03-20T05:23:09;15.73;;;7.67;;
17059;SDS011;8646;49.716;9.266;2023-03-20T05:26:12;15.83;;;7.73;;
17059;SDS011;8646;49.716;9.266;2023-03-20T05:29:14;15.03;;;7.53;;
17059;SDS011;8646;49.716;9.266;2023-03-20T05:32:21;13.00;;;6.90;;
17059;SDS011;8646;49.716;9.266;2023-03-20T05:35:24;10.07;;;5.80;;
17059;SDS011;8646;49.716;9.266;2023-03-20T05:38:30;17.77;;;6.37;;
17059;SDS011;8646;49.716;9.266;2023-03-20T05:41:35;11.77;;;6.70;;
17059;SDS011;8646;49.716;9.266;2023-03-20T05:44:38;12.27;;;6.80;;
17059;SDS011;8646;49.716;9.266;2023-03-20T05:47:45;14.43;;;6.50;;
17059;SDS011;8646;49.716;9.266;2023-03-20T05:50:47;11.27;;;6.90;;
17059;SDS011;8646;49.716;9.266;2023-03-20T05:53:50;15.37;;;7.97;;
17059;SDS011;8646;49.716;9.266;2023-03-20T05:56:53;16.63;;;7.47;;
17059;SDS011;8646;49.716;9.266;2023-03-20T05:59:59;17.97;;;8.20;;
17059;SDS011;8646;49.716;9.266;2023-03-20T06:03:03;13.97;;;8.10;;
17059;SDS011;8646;49.716;9.266;2023-03-20T06:06:07;22.03;;;9.93;;
17059;SDS011;8646;49.716;9.266;2023-03-20T06:09:11;27.57;;;14.47;;
17059;SDS011;8646;49.716;9.266;2023-03-20T06:12:14;26.10;;;13.27;;
17059;SDS011;8646;49.716;9.266;2023-03-20T06:15:20;16.57;;;9.23;;
17059;SDS011;8646;49.716;9.266;2023-03-20T06:18:26;19.20;;;8.90;;
17059;SDS011;8646;49.716;9.266;2023-03-20T06:21:29;15.43;;;7.47;;
17059;SDS011;8646;49.716;9.266;2023-03-20T06:24:32;16.60;;;8.20;;
17059;SDS011;8646;49.716;9.266;2023-03-20T06:27:38;10.17;;;6.80;;
17059;SDS011;8646;49.716;9.266;2023-03-20T06:30:41;11.77;;;6.90;;
17059;SDS011;8646;49.716;9.266;2023-03-20T06:33:47;12.47;;;6.97;;
17059;SDS011;8646;49.716;9.266;2023-03-20T06:36:51;13.40;;;7.90;;
17059;SDS011;8646;49.716;9.266;2023-03-20T06:39:53;14.90;;;7.77;;
17059;SDS011;8646;49.716;9.266;2023-03-20T06:42:56;16.00;;;9.03;;
17059;SDS011;8646;49.716;9.266;2023-03-20T06:45:59;12.80;;;7.63;;
17059;SDS011;8646;49.716;9.266;2023-03-20T06:49:03;14.13;;;8.57;;
17059;SDS011;8646;49.716;9.266;2023-03-20T06:52:06;13.03;;;8.20;;
17059;SDS011;8646;49.716;9.266;2023-03-20T06:55:09;17.47;;;8.50;;
17059;SDS011;8646;49.716;9.266;2023-03-20T06:58:23;16.47;;;8.10;;
17059;SDS011;8646;49.716;9.266;2023-03-20T07:01:29;17.27;;;7.60;;
17059;SDS011;8646;49.716;9.266;2023-03-20T07:04:36;13.33;;;7.17;;
17059;SDS011;8646;49.716;9.266;2023-03-20T07:07:40;11.53;;;7.17;;
17059;SDS011;8646;49.716;9.266;2023-03-20T07:10:49;10.83;;;6.60;;
17059;SDS011;8646;49.716;9.266;2023-03-20T07:13:52;12.77;;;7.53;;
17059;SDS011;8646;49.716;9.266;2023-03-20T07:16:54;16.00;;;8.17;;
17059;SDS011;8646;49.716;9.266;2023-03-20T07:19:59;16.40;;;9.07;;
17059;SDS011;8646;49.716;9.266;2023-03-20T07:23:05;16.70;;;9.00;;
17059;SDS011;8646;49.716;9.266;2023-03-20T07:26:08;19.40;;;10.17;;
17059;SDS011;8646;49.716;9.266;2023-03-20T07:29:14;30.57;;;12.03;;
17059;SDS011;8646;49.716;9.266;2023-03-20T07:32:17;21.10;;;11.50;;
17059;SDS011;8646;49.716;9.266;2023-03-20T07:35:22;20.97;;;11.67;;
17059;SDS011;8646;49.716;9.266;2023-03-20T07:38:28;23.83;;;12.13;;
17059;SDS011;8646;49.716;9.266;2023-03-20T07:41:36;21.67;;;11.27;;
17059;SDS011;8646;49.716;9.266;2023-03-20T07:44:42;19.97;;;11.03;;
17059;SDS011;8646;49.716;9.266;2023-03-20T07:47:48;22.40;;;11.33;;
17059;SDS011;8646;49.716;9.266;2023-03-20T07:50:52;20.57;;;10.93;;
17059;SDS011;8646;49.716;9.266;2023-03-20T07:54:07;20.10;;;11.03;;
17059;SDS011;8646;49.716;9.266;2023-03-20T07:57:09;23.07;;;11.60;;
17059;SDS011;8646;49.716;9.266;2023-03-20T08:00:20;21.17;;;11.17;;
17059;SDS011;8646;49.716;9.266;2023-03-20T08:03:25;20.40;;;10.53;;
17059;SDS011;8646;49.716;9.266;2023-03-20T08:06:42;22.03;;;10.83;;
17059;SDS011;8646;49.716;9.266;2023-03-20T08:09:45;24.83;;;12.40;;
17059;SDS011;8646;49.716;9.266;2023-03-20T08:13:08;22.20;;;11.83;;
17059;SDS011;8646;49.716;9.266;2023-03-20T08:16:10;24.30;;;12.00;;
17059;SDS011;8646;49.716;9.266;2023-03-20T08:19:13;24.87;;;12.43;;
17059;SDS011;8646;49.716;9.266;2023-03-20T08:22:17;26.60;;;13.20;;
17059;SDS011;8646;49.716;9.266;2023-03-20T08:25:23;22.60;;;11.93;;
17059;SDS011;8646;49.716;9.266;2023-03-20T08:28:26;23.80;;;12.00;;
17059;SDS011;8646;49.716;9.266;2023-03-20T08:31:47;23.17;;;12.70;;
17059;SDS011;8646;49.716;9.266;2023-03-20T08:34:50;23.77;;;12.20;;
17059;SDS011;8646;49.716;9.266;2023-03-20T08:37:56;22.23;;;11.80;;
17059;SDS011;8646;49.716;9.266;2023-03-20T08:41:06;22.77;;;12.23;;
17059;SDS011;8646;49.716;9.266;2023-03-20T08:44:09;24.30;;;12.37;;
17059;SDS011;8646;49.716;9.266;2023-03-20T08:47:12;26.33;;;11.90;;
17059;SDS011;8646;49.716;9.266;2023-03-20T08:50:15;22.63;;;11.53;;
17059;SDS011;8646;49.716;9.266;2023-03-20T08:53:19;25.27;;;11.80;;
17059;SDS011;8646;49.716;9.266;2023-03-20T08:56:22;22.30;;;11.87;;
17059;SDS011;8646;49.716;9.266;2023-03-20T08:59:25;25.40;;;13.13;;
17059;SDS011;8646;49.716;9.266;2023-03-20T09:02:31;23.63;;;12.70;;
17059;SDS011;8646;49.716;9.266;2023-03-20T09:05:35;30.27;;;15.97;;
17059;SDS011;8646;49.716;9.266;2023-03-20T09:08:43;33.10;;;16.80;;
17059;SDS011;8646;49.716;9.266;2023-03-20T09:11:46;24.97;;;12.50;;
17059;SDS011;8646;49.716;9.266;2023-03-20T09:14:49;22.70;;;12.50;;
17059;SDS011;8646;49.716;9.266;2023-03-20T09:17:52;26.93;;;13.07;;
17059;SDS011;8646;49.716;9.266;2023-03-20T09:20:54;24.27;;;12.57;;
17059;SDS011;8646;49.716;9.266;2023-03-20T09:24:02;24.13;;;11.93;;
17059;SDS011;8646;49.716;9.266;2023-03-20T09:27:05;22.13;;;11.43;;
17059;SDS011;8646;49.716;9.266;2023-03-20T09:30:11;22.63;;;11.17;;
17059;SDS011;8646;49.716;9.266;2023-03-20T09:33:15;18.10;;;9.83;;
17059;SDS011;8646;49.716;9.266;2023-03-20T09:36:31;19.77;;;10.10;;
17059;SDS011;8646;49.716;9.266;2023-03-20T09:39:35;23.10;;;10.23;;
17059;SDS011;8646;49.716;9.266;2023-03-20T09:42:40;19.43;;;9.73;;
17059;SDS011;8646;49.716;9.266;2023-03-20T09:45:49;19.43;;;9.77;;
17059;SDS011;8646;49.716;9.266;2023-03-20T09:49:12;17.00;;;9.23;;
17059;SDS011;8646;49.716;9.266;2023-03-20T09:52:29;21.87;;;9.90;;
17059;SDS011;8646;49.716;9.266;2023-03-20T09:55:35;15.63;;;9.23;;
17059;SDS011;8646;49.716;9.266;2023-03-20T09:58:41;19.23;;;10.20;;
17059;SDS011;8646;49.716;9.266;2023-03-20T10:01:54;17.73;;;9.33;;
17059;SDS011;8646;49.716;9.266;2023-03-20T10:05:00;18.53;;;9.00;;
17059;SDS011;8646;49.716;9.266;2023-03-20T10:08:09;18.20;;;8.97;;
17059;SDS011;8646;49.716;9.266;2023-03-20T10:15:00;16.33;;;8.97;;
17059;SDS011;8646;49.716;9.266;2023-03-20T10:18:13;18.37;;;9.43;;
17059;SDS011;8646;49.716;9.266;2023-03-20T10:21:31;13.53;;;8.20;;
17059;SDS011;8646;49.716;9.266;2023-03-20T10:24:45;16.90;;;9.17;;
17059;SDS011;8646;49.716;9.266;2023-03-20T10:27:51;26.23;;;9.37;;
17059;SDS011;8646;49.716;9.266;2023-03-20T10:31:12;14.27;;;7.87;;
17059;SDS011;8646;49.716;9.266;2023-03-20T10:34:29;13.77;;;8.43;;
17059;SDS011;8646;49.716;9.266;2023-03-20T10:37:46;14.53;;;7.77;;
17059;SDS011;8646;49.716;9.266;2023-03-20T10:41:00;14.83;;;7.60;;
17059;SDS011;8646;49.716;9.266;2023-03-20T10:44:09;14.60;;;7.67;;
17059;SDS011;8646;49.716;9.266;2023-03-20T10:47:24;20.60;;;8.87;;
17059;SDS011;8646;49.716;9.266;2023-03-20T10:50:32;13.83;;;8.07;;
17059;SDS011;8646;49.716;9.266;2023-03-20T10:53:44;13.63;;;8.17;;
17059;SDS011;8646;49.716;9.266;2023-03-20T11:00:30;13.60;;;6.37;;
17059;SDS011;8646;49.716;9.266;2023-03-20T11:03:34;12.60;;;6.70;;
17059;SDS011;8646;49.716;9.266;2023-03-20T11:06:45;13.80;;;7.50;;
17059;SDS011;8646;49.716;9.266;2023-03-20T11:10:06;12.77;;;6.63;;
17059;SDS011;8646;49.716;9.266;2023-03-20T11:13:15;11.53;;;6.53;;
17059;SDS011;8646;49.716;9.266;2023-03-20T11:16:30;14.20;;;6.87;;
17059;SDS011;8646;49.716;9.266;2023-03-20T11:19:40;11.60;;;6.73;;
17059;SDS011;8646;49.716;9.266;2023-03-20T11:22:43;12.30;;;7.07;;
17059;SDS011;8646;49.716;9.266;2023-03-20T11:25:49;12.63;;;6.70;;
17059;SDS011;8646;49.716;9.266;2023-03-20T11:28:54;12.87;;;6.70;;
17059;SDS011;8646;49.716;9.266;2023-03-20T11:32:04;13.63;;;7.17;;
17059;SDS011;8646;49.716;9.266;2023-03-20T11:35:10;15.93;;;8.17;;
17059;SDS011;8646;49.716;9.266;2023-03-20T11:38:20;11.90;;;7.50;;
17059;SDS011;8646;49.716;9.266;2023-03-20T11:41:30;15.93;;;7.77;;
17059;SDS011;8646;49.716;9.266;2023-03-20T11:44:45;38.37;;;17.03;;
17059;SDS011;8646;49.716;9.266;2023-03-20T11:48:00;16.63;;;9.40;;
17059;SDS011;8646;49.716;9.266;2023-03-20T11:51:05;17.90;;;8.60;;
17059;SDS011;8646;49.716;9.266;2023-03-20T11:54:13;13.33;;;7.87;;
17059;SDS011;8646;49.716;9.266;2023-03-20T11:57:27;17.07;;;9.00;;
17059;SDS011;8646;49.716;9.266;2023-03-20T12:00:36;12.70;;;7.13;;
17059;SDS011;8646;49.716;9.266;2023-03-20T12:03:44;32.17;;;22.20;;
17059;SDS011;8646;49.716;9.266;2023-03-20T12:06:56;13.23;;;7.43;;
17059;SDS011;8646;49.716;9.266;2023-03-20T12:10:05;12.50;;;7.20;;
17059;SDS011;8646;49.716;9.266;2023-03-20T12:13:20;9.47;;;6.20;;
17059;SDS011;8646;49.716;9.266;2023-03-20T12:16:26;11.63;;;6.97;;
17059;SDS011;8646;49.716;9.266;2023-03-20T12:19:32;13.20;;;7.60;;
17059;SDS011;8646;49.716;9.266;2023-03-20T12:22:36;10.37;;;5.57;;
17059;SDS011;8646;49.716;9.266;2023-03-20T12:25:54;10.40;;;6.10;;
17059;SDS011;8646;49.716;9.266;2023-03-20T12:29:02;8.67;;;5.37;;
17059;SDS011;8646;49.716;9.266;2023-03-20T12:32:09;8.07;;;4.73;;
17059;SDS011;8646;49.716;9.266;2023-03-20T12:35:21;8.60;;;4.90;;
17059;SDS011;8646;49.716;9.266;2023-03-20T12:38:28;12.13;;;5.20;;
17059;SDS011;8646;49.716;9.266;2023-03-20T12:41:36;7.90;;;4.87;;
17059;SDS011;8646;49.716;9.266;2023-03-20T12:44:47;9.07;;;4.80;;
17059;SDS011;8646;49.716;9.266;2023-03-20T12:47:56;7.90;;;4.60;;
17059;SDS011;8646;49.716;9.266;2023-03-20T12:51:13;10.53;;;4.67;;
17059;SDS011;8646;49.716;9.266;2023-03-20T12:54:28;9.57;;;4.57;;
17059;SDS011;8646;49.716;9.266;2023-03-20T12:57:43;8.53;;;4.60;;
17059;SDS011;8646;49.716;9.266;2023-03-20T13:01:01;8.10;;;4.30;;
17059;SDS011;8646;49.716;9.266;2023-03-20T13:04:16;11.37;;;4.50;;
17059;SDS011;8646;49.716;9.266;2023-03-20T13:07:33;7.47;;;4.20;;
17059;SDS011;8646;49.716;9.266;2023-03-20T13:10:47;10.43;;;4.23;;
17059;SDS011;8646;49.716;9.266;2023-03-20T13:13:58;10.93;;;4.37;;
17059;SDS011;8646;49.716;9.266;2023-03-20T13:17:09;8.53;;;4.70;;
17059;SDS011;8646;49.716;9.266;2023-03-20T13:20:20;8.93;;;5.07;;
17059;SDS011;8646;49.716;9.266;2023-03-20T13:23:29;9.10;;;5.00;;
17059;SDS011;8646;49.716;9.266;2023-03-20T13:26:39;17.30;;;4.80;;
17059;SDS011;8646;49.716;9.266;2023-03-20T13:29:49;6.43;;;4.20;;
17059;SDS011;8646;49.716;9.266;2023-03-20T13:33:00;7.20;;;4.37;;
17059;SDS011;8646;49.716;9.266;2023-03-20T13:36:12;9.40;;;4.87;;
17059;SDS011;8646;49.716;9.266;2023-03-20T13:39:28;10.50;;;4.50;;
17059;SDS011;8646;49.716;9.266;2023-03-20T13:42:36;9.10;;;4.27;;
17059;SDS011;8646;49.716;9.266;2023-03-20T13:45:42;9.00;;;4.20;;
17059;SDS011;8646;49.716;9.266;2023-03-20T13:48:45;11.60;;;4.10;;
17059;SDS011;8646;49.716;9.266;2023-03-20T13:51:50;8.10;;;4.40;;
17059;SDS011;8646;49.716;9.266;2023-03-20T13:55:03;8.80;;;4.00;;
17059;SDS011;8646;49.716;9.266;2023-03-20T13:58:27;6.70;;;3.90;;
17059;SDS011;8646;49.716;9.266;2023-03-20T14:01:43;11.40;;;4.20;;
17059;SDS011;8646;49.716;9.266;2023-03-20T14:04:59;8.10;;;3.50;;
17059;SDS011;8646;49.716;9.266;2023-03-20T14:11:35;9.57;;;4.30;;
17059;SDS011;8646;49.716;9.266;2023-03-20T14:14:39;5.90;;;3.60;;
17059;SDS011;8646;49.716;9.266;2023-03-20T14:17:45;9.40;;;3.63;;
17059;SDS011;8646;49.716;9.266;2023-03-20T14:20:53;7.93;;;3.80;;
17059;SDS011;8646;49.716;9.266;2023-03-20T14:24:01;7.07;;;3.50;;
17059;SDS011;8646;49.716;9.266;2023-03-20T14:27:13;6.03;;;3.83;;
17059;SDS011;8646;49.716;9.266;2023-03-20T14:30:38;8.30;;;3.80;;
17059;SDS011;8646;49.716;9.266;2023-03-20T14:33:45;5.77;;;3.50;;
17059;SDS011;8646;49.716;9.266;2023-03-20T14:37:00;6.03;;;3.40;;
17059;SDS011;8646;49.716;9.266;2023-03-20T14:40:10;6.20;;;3.43;;
17059;SDS011;8646;49.716;9.266;2023-03-20T14:43:25;5.87;;;3.30;;
17059;SDS011;8646;49.716;9.266;2023-03-20T14:46:58;6.23;;;3.17;;
17059;SDS011;8646;49.716;9.266;2023-03-20T14:50:09;6.80;;;3.30;;
17059;SDS011;8646;49.716;9.266;2023-03-20T14:53:20;7.60;;;4.00;;
17059;SDS011;8646;49.716;9.266;2023-03-20T14:56:26;6.00;;;3.23;;
17059;SDS011;8646;49.716;9.266;2023-03-20T14:59:33;5.17;;;3.07;;
17059;SDS011;8646;49.716;9.266;2023-03-20T15:02:36;5.93;;;3.30;;
17059;SDS011;8646;49.716;9.266;2023-03-20T15:05:39;7.07;;;2.93;;
17059;SDS011;8646;49.716;9.266;2023-03-20T15:08:43;6.17;;;3.13;;
17059;SDS011;8646;49.716;9.266;2023-03-20T15:11:48;5.13;;;3.00;;
17059;SDS011;8646;49.716;9.266;2023-03-20T15:14:55;5.43;;;3.00;;
17059;SDS011;8646;49.716;9.266;2023-03-20T15:18:02;7.40;;;3.30;;
17059;SDS011;8646;49.716;9.266;2023-03-20T15:21:10;5.97;;;3.20;;
17059;SDS011;8646;49.716;9.266;2023-03-20T15:24:18;9.37;;;3.27;;
17059;SDS011;8646;49.716;9.266;2023-03-20T15:27:24;8.27;;;3.07;;
17059;SDS011;8646;49.716;9.266;2023-03-20T15:30:31;5.87;;;3.00;;
17059;SDS011;8646;49.716;9.266;2023-03-20T15:33:38;7.57;;;3.00;;
17059;SDS011;8646;49.716;9.266;2023-03-20T15:36:44;12.33;;;2.70;;
17059;SDS011;8646;49.716;9.266;2023-03-20T15:39:47;4.87;;;2.70;;
17059;SDS011;8646;49.716;9.266;2023-03-20T15:42:52;8.17;;;2.80;;
17059;SDS011;8646;49.716;9.266;2023-03-20T15:46:04;9.00;;;2.73;;
17059;SDS011;8646;49.716;9.266;2023-03-20T15:49:19;5.50;;;3.00;;
17059;SDS011;8646;49.716;9.266;2023-03-20T15:52:25;7.20;;;2.90;;
17059;SDS011;8646;49.716;9.266;2023-03-20T15:55:30;3.70;;;2.40;;
17059;SDS011;8646;49.716;9.266;2023-03-20T15:58:34;3.97;;;2.50;;
17059;SDS011;8646;49.716;9.266;2023-03-20T16:01:39;4.40;;;2.40;;
17059;SDS011;8646;49.716;9.266;2023-03-20T16:04:43;4.93;;;2.70;;
17059;SDS011;8646;49.716;9.266;2023-03-20T16:07:48;6.07;;;3.40;;
17059;SDS011;8646;49.716;9.266;2023-03-20T16:10:53;4.47;;;2.20;;
17059;SDS011;8646;49.716;9.266;2023-03-20T16:13:58;4.70;;;2.20;;
17059;SDS011;8646;49.716;9.266;2023-03-20T16:17:02;8.00;;;1.80;;
17059;SDS011;8646;49.716;9.266;2023-03-20T16:20:13;8.00;;;2.50;;
17059;SDS011;8646;49.716;9.266;2023-03-20T16:23:18;7.00;;;2.77;;
17059;SDS011;8646;49.716;9.266;2023-03-20T16:26:42;4.20;;;2.07;;
17059;SDS011;8646;49.716;9.266;2023-03-20T16:29:47;4.03;;;1.87;;
17059;SDS011;8646;49.716;9.266;2023-03-20T16:32:55;7.20;;;2.27;;
17059;SDS011;8646;49.716;9.266;2023-03-20T16:36:01;3.03;;;1.77;;
17059;SDS011;8646;49.716;9.266;2023-03-20T16:39:06;5.37;;;2.50;;
17059;SDS011;8646;49.716;9.266;2023-03-20T16:42:17;4.97;;;2.00;;
17059;SDS011;8646;49.716;9.266;2023-03-20T16:45:25;5.87;;;1.70;;
17059;SDS011;8646;49.716;9.266;2023-03-20T16:48:33;5.67;;;1.70;;
17059;SDS011;8646;49.716;9.266;2023-03-20T16:51:38;4.67;;;1.97;;
17059;SDS011;8646;49.716;9.266;2023-03-20T16:54:44;5.30;;;2.30;;
17059;SDS011;8646;49.716;9.266;2023-03-20T16:57:49;3.80;;;2.70;;
17059;SDS011;8646;49.716;9.266;2023-03-20T17:01:02;7.57;;;2.37;;
17059;SDS011;8646;49.716;9.266;2023-03-20T17:04:13;5.60;;;2.87;;
17059;SDS011;8646;49.716;9.266;2023-03-20T17:07:20;12.00;;;5.33;;
17059;SDS011;8646;49.716;9.266;2023-03-20T17:10:31;9.10;;;4.70;;
17059;SDS011;8646;49.716;9.266;2023-03-20T17:13:33;6.60;;;2.70;;
17059;SDS011;8646;49.716;9.266;2023-03-20T17:16:36;15.50;;;11.30;;
17059;SDS011;8646;49.716;9.266;2023-03-20T17:19:42;26.93;;;14.63;;
17059;SDS011;8646;49.716;9.266;2023-03-20T17:22:45;7.00;;;4.83;;
17059;SDS011;8646;49.716;9.266;2023-03-20T17:25:48;6.47;;;3.77;;
17059;SDS011;8646;49.716;9.266;2023-03-20T17:28:52;5.13;;;3.30;;
17059;SDS011;8646;49.716;9.266;2023-03-20T17:31:55;7.07;;;3.77;;
17059;SDS011;8646;49.716;9.266;2023-03-20T17:34:59;8.97;;;4.13;;
17059;SDS011;8646;49.716;9.266;2023-03-20T17:38:02;4.47;;;2.50;;
17059;SDS011;8646;49.716;9.266;2023-03-20T17:41:07;5.27;;;2.47;;
17059;SDS011;8646;49.716;9.266;2023-03-20T17:44:14;6.30;;;3.33;;
17059;SDS011;8646;49.716;9.266;2023-03-20T17:47:17;9.87;;;4.63;;
17059;SDS011;8646;49.716;9.266;2023-03-20T17:50:22;6.50;;;2.47;;
17059;SDS011;8646;49.716;9.266;2023-03-20T17:53:27;4.20;;;2.30;;
17059;SDS011;8646;49.716;9.266;2023-03-20T17:56:31;9.20;;;3.27;;
17059;SDS011;8646;49.716;9.266;2023-03-20T17:59:34;13.67;;;6.43;;
17059;SDS011;8646;49.716;9.266;2023-03-20T18:02:37;6.97;;;2.90;;
17059;SDS011;8646;49.716;9.266;2023-03-20T18:05:41;3.23;;;2.20;;
17059;SDS011;8646;49.716;9.266;2023-03-20T18:08:44;5.63;;;2.73;;
17059;SDS011;8646;49.716;9.266;2023-03-20T18:11:47;7.80;;;4.17;;
17059;SDS011;8646;49.716;9.266;2023-03-20T18:14:50;5.53;;;2.60;;
17059;SDS011;8646;49.716;9.266;2023-03-20T18:17:52;5.97;;;2.50;;
17059;SDS011;8646;49.716;9.266;2023-03-20T18:20:57;5.03;;;2.20;;
17059;SDS011;8646;49.716;9.266;2023-03-20T18:24:00;4.60;;;1.77;;
17059;SDS011;8646;49.716;9.266;2023-03-20T18:27:04;3.90;;;2.30;;
17059;SDS011;8646;49.716;9.266;2023-03-20T18:30:09;5.63;;;2.10;;
17059;SDS011;8646;49.716;9.266;2023-03-20T18:33:16;6.53;;;2.37;;
17059;SDS011;8646;49.716;9.266;2023-03-20T18:36:21;5.33;;;2.40;;
17059;SDS011;8646;49.716;9.266;2023-03-20T18:39:25;6.20;;;2.37;;
17059;SDS011;8646;49.716;9.266;2023-03-20T18:42:28;4.87;;;2.17;;
17059;SDS011;8646;49.716;9.266;2023-03-20T18:45:34;4.33;;;1.90;;
17059;SDS011;8646;49.716;9.266;2023-03-20T18:48:39;4.60;;;2.13;;
17059;SDS011;8646;49.716;9.266;2023-03-20T18:51:43;5.70;;;1.80;;
17059;SDS011;8646;49.716;9.266;2023-03-20T18:54:47;10.73;;;2.40;;
17059;SDS011;8646;49.716;9.266;2023-03-20T18:57:50;4.40;;;1.87;;
17059;SDS011;8646;49.716;9.266;2023-03-20T19:00:53;7.53;;;2.10;;
17059;SDS011;8646;49.716;9.266;2023-03-20T19:03:57;4.83;;;1.93;;
17059;SDS011;8646;49.716;9.266;2023-03-20T19:07:01;5.67;;;2.00;;
17059;SDS011;8646;49.716;9.266;2023-03-20T19:10:04;4.77;;;2.00;;
17059;SDS011;8646;49.716;9.266;2023-03-20T19:13:08;3.77;;;2.03;;
17059;SDS011;8646;49.716;9.266;2023-03-20T19:16:17;7.03;;;2.60;;
17059;SDS011;8646;49.716;9.266;2023-03-20T19:19:23;7.30;;;2.17;;